createdAt,value
2022-12-26T00:00:14.223Z,99635.54
2022-12-26T00:01:11.379Z,99634.61
2022-12-26T00:01:49.006Z,99637.71
2022-12-26T00:02:23.218Z,99637.08
2022-12-26T00:02:56.893Z,99640.00
2022-12-26T00:03:31.008Z,99640.19
2022-12-26T00:04:05.130Z,99642.13
2022-12-26T00:04:51.462Z,99638.30
2022-12-26T00:05:26.715Z,99642.25
2022-12-26T00:06:00.325Z,99638.80
2022-12-26T00:06:34.598Z,99639.45
2022-12-26T00:07:08.170Z,99639.23
2022-12-26T00:07:41.736Z,99637.34
2022-12-26T00:08:14.969Z,99635.67
2022-12-26T00:08:48.772Z,99636.08
2022-12-26T00:09:22.248Z,99633.94
2022-12-26T00:09:55.802Z,99634.39
2022-12-26T00:10:29.076Z,99633.98
2022-12-26T00:11:02.543Z,99634.45
2022-12-26T00:11:36.990Z,99638.23
2022-12-26T00:12:10.499Z,99634.38
2022-12-26T00:12:43.997Z,99635.09
2022-12-26T00:13:38.614Z,99630.08
2022-12-26T00:14:14.086Z,99631.08
2022-12-26T00:14:47.515Z,99627.51
2022-12-26T00:15:21.021Z,99627.13
2022-12-26T00:15:54.341Z,99626.28
2022-12-26T00:16:28.436Z,99626.45
2022-12-26T00:17:01.828Z,99627.11
2022-12-26T00:17:35.594Z,99628.31
2022-12-26T00:18:09.094Z,99628.14
2022-12-26T00:18:43.489Z,99630.82
2022-12-26T00:19:16.762Z,99631.32
2022-12-26T00:19:50.138Z,99633.54
2022-12-26T00:20:23.645Z,99632.50
2022-12-26T00:20:57.104Z,99627.58
2022-12-26T00:21:31.207Z,99627.89
2022-12-26T00:22:05.579Z,99628.30
2022-12-26T00:22:38.748Z,99631.23
2022-12-26T00:23:12.204Z,99626.73
2022-12-26T00:23:46.677Z,99627.47
2022-12-26T00:24:20.298Z,99625.86
2022-12-26T00:24:53.622Z,99626.02
2022-12-26T00:25:27.283Z,99627.31
2022-12-26T00:26:05.506Z,99627.10
2022-12-26T00:26:39.678Z,99625.17
2022-12-26T00:27:13.107Z,99622.05
2022-12-26T00:27:46.347Z,99624.31
2022-12-26T00:28:19.877Z,99621.20
2022-12-26T00:28:55.155Z,99620.29
2022-12-26T00:29:28.673Z,99620.83
2022-12-26T00:30:02.134Z,99620.53
2022-12-26T00:30:38.635Z,99620.53
2022-12-26T00:31:15.728Z,99619.30
2022-12-26T00:31:50.170Z,99621.02
2022-12-26T00:32:23.691Z,99620.89
2022-12-26T00:32:57.099Z,99622.98
2022-12-26T00:33:30.491Z,99622.20
2022-12-26T00:34:03.962Z,99622.48
2022-12-26T00:34:37.488Z,99624.88
2022-12-26T00:35:10.993Z,99624.05
2022-12-26T00:35:44.395Z,99622.78
2022-12-26T00:36:24.281Z,99624.56
2022-12-26T00:36:57.752Z,99624.56
2022-12-26T00:37:31.082Z,99625.66
2022-12-26T00:38:04.452Z,99625.16
2022-12-26T00:38:40.112Z,99623.86
2022-12-26T00:39:13.593Z,99626.88
2022-12-26T00:39:47.065Z,99627.15
2022-12-26T00:40:20.456Z,99621.33
2022-12-26T00:40:53.835Z,99619.76
2022-12-26T00:41:28.017Z,99616.14
2022-12-26T00:42:01.311Z,99614.50
2022-12-26T00:42:34.933Z,99612.79
2022-12-26T00:43:08.457Z,99607.46
2022-12-26T00:43:41.876Z,99606.46
2022-12-26T00:44:15.189Z,99605.30
2022-12-26T00:44:48.698Z,99602.81
2022-12-26T00:45:22.349Z,99600.84
2022-12-26T00:45:55.815Z,99598.27
2022-12-26T00:46:29.499Z,99598.60
2022-12-26T00:47:03.261Z,99598.90
2022-12-26T00:47:36.846Z,99601.41
2022-12-26T00:48:10.376Z,99601.61
2022-12-26T00:48:44.350Z,99601.20
2022-12-26T00:49:17.555Z,99603.02
2022-12-26T00:50:13.028Z,99606.17
2022-12-26T00:50:44.006Z,99603.88
2022-12-26T00:51:17.895Z,99604.84
2022-12-26T00:51:51.251Z,99604.13
2022-12-26T00:52:24.554Z,99601.42
2022-12-26T00:52:58.027Z,99601.39
2022-12-26T00:53:31.593Z,99598.60
2022-12-26T00:54:05.005Z,99593.14
2022-12-26T00:54:38.765Z,99591.23
2022-12-26T00:55:12.293Z,99593.83
2022-12-26T00:55:45.773Z,99590.14
2022-12-26T00:56:19.199Z,99586.75
2022-12-26T00:56:52.603Z,99584.41
2022-12-26T00:57:26.025Z,99586.17
2022-12-26T00:57:59.466Z,99585.15
2022-12-26T00:58:33.121Z,99584.15
2022-12-26T00:59:06.544Z,99579.91
2022-12-26T00:59:40.109Z,99583.69
2022-12-26T01:00:14.173Z,99583.34
2022-12-26T01:00:48.378Z,99581.23
2022-12-26T01:01:23.549Z,99583.64
2022-12-26T01:01:57.402Z,99580.08
2022-12-26T01:02:40.092Z,99580.78
2022-12-26T01:03:14.877Z,99583.38
2022-12-26T01:03:49.434Z,99576.58
2022-12-26T01:04:23.014Z,99575.60
2022-12-26T01:04:56.525Z,99570.89
2022-12-26T01:05:30.270Z,99568.35
2022-12-26T01:06:05.235Z,99570.08
2022-12-26T01:06:38.608Z,99569.69
2022-12-26T01:07:11.903Z,99569.82
2022-12-26T01:08:22.020Z,99568.68
2022-12-26T01:08:39.074Z,99568.91
2022-12-26T01:09:14.064Z,99567.98
2022-12-26T01:09:47.249Z,99570.16
2022-12-26T01:10:20.712Z,99570.38
2022-12-26T01:10:54.217Z,99574.83
2022-12-26T01:11:43.223Z,99572.37
2022-12-26T01:12:16.756Z,99573.21
2022-12-26T01:12:50.041Z,99569.91
2022-12-26T01:13:23.505Z,99572.28
2022-12-26T01:13:56.833Z,99573.86
2022-12-26T01:14:30.361Z,99569.27
2022-12-26T01:15:04.761Z,99566.26
2022-12-26T01:15:38.499Z,99564.20
2022-12-26T01:16:11.968Z,99567.13
2022-12-26T01:16:47.486Z,99563.57
2022-12-26T01:17:20.973Z,99569.33
2022-12-26T01:17:54.412Z,99570.77
2022-12-26T01:18:28.227Z,99571.19
2022-12-26T01:19:01.907Z,99570.46
2022-12-26T01:19:35.531Z,99574.45
2022-12-26T01:20:09.708Z,99573.40
2022-12-26T01:20:43.079Z,99572.98
2022-12-26T01:21:16.485Z,99573.79
2022-12-26T01:21:50.061Z,99574.05
2022-12-26T01:22:24.556Z,99577.59
2022-12-26T01:22:57.787Z,99575.42
2022-12-26T01:23:31.371Z,99573.30
2022-12-26T01:24:05.786Z,99577.33
2022-12-26T01:24:39.390Z,99578.00
2022-12-26T01:25:12.895Z,99575.66
2022-12-26T01:26:16.404Z,99574.81
2022-12-26T01:26:39.684Z,99572.33
2022-12-26T01:27:13.324Z,99570.92
2022-12-26T01:27:46.728Z,99571.21
2022-12-26T01:28:20.436Z,99567.30
2022-12-26T01:28:54.101Z,99570.64
2022-12-26T01:29:27.331Z,99568.61
2022-12-26T01:30:00.768Z,99565.25
2022-12-26T01:30:34.349Z,99563.77
2022-12-26T01:31:07.883Z,99563.96
2022-12-26T01:31:41.617Z,99562.27
2022-12-26T01:32:15.570Z,99561.48
2022-12-26T01:32:48.771Z,99560.05
2022-12-26T01:33:22.082Z,99556.64
2022-12-26T01:33:55.508Z,99556.61
2022-12-26T01:34:28.969Z,99556.77
2022-12-26T01:35:02.319Z,99552.33
2022-12-26T01:35:35.617Z,99555.52
2022-12-26T01:36:09.364Z,99553.49
2022-12-26T01:36:42.868Z,99548.70
2022-12-26T01:37:17.282Z,99551.51
2022-12-26T01:37:50.768Z,99549.91
2022-12-26T01:38:25.254Z,99550.50
2022-12-26T01:38:58.900Z,99552.20
2022-12-26T01:39:32.542Z,99549.11
2022-12-26T01:40:06.661Z,99548.14
2022-12-26T01:40:43.694Z,99550.48
2022-12-26T01:41:17.532Z,99545.86
2022-12-26T01:41:51.189Z,99545.69
2022-12-26T01:42:26.675Z,99540.98
2022-12-26T01:43:00.132Z,99537.85
2022-12-26T01:43:50.915Z,99533.89
2022-12-26T01:44:55.428Z,99532.05
2022-12-26T01:45:31.407Z,99529.35
2022-12-26T01:46:04.899Z,99526.16
2022-12-26T01:46:39.959Z,99528.23
2022-12-26T01:47:14.684Z,99530.78
2022-12-26T01:47:51.979Z,99528.77
2022-12-26T01:48:34.694Z,99526.50
2022-12-26T01:49:26.650Z,99527.44
2022-12-26T01:50:00.177Z,99524.37
2022-12-26T01:50:33.512Z,99526.44
2022-12-26T01:51:07.858Z,99527.84
2022-12-26T01:51:46.576Z,99528.45
2022-12-26T01:52:49.603Z,99525.91
2022-12-26T01:53:30.916Z,99528.84
2022-12-26T01:54:41.335Z,99526.66
2022-12-26T01:55:03.623Z,99527.23
2022-12-26T01:55:38.192Z,99529.30
2022-12-26T01:56:16.187Z,99526.54
2022-12-26T01:56:49.760Z,99527.91
2022-12-26T01:57:28.252Z,99528.98
2022-12-26T01:58:10.740Z,99532.17
2022-12-26T01:59:06.544Z,99532.20
2022-12-26T01:59:41.947Z,99534.89
2022-12-26T02:00:16.001Z,99535.05
2022-12-26T02:00:49.757Z,99537.11
2022-12-26T02:01:30.210Z,99538.80
2022-12-26T02:02:04.339Z,99537.72
2022-12-26T02:02:57.869Z,99535.69
2022-12-26T02:03:50.951Z,99538.20
2022-12-26T02:04:53.630Z,99543.70
2022-12-26T02:05:35.728Z,99546.71
2022-12-26T02:06:10.670Z,99548.58
2022-12-26T02:06:44.239Z,99545.74
2022-12-26T02:07:17.908Z,99548.14
2022-12-26T02:07:51.346Z,99547.75
2022-12-26T02:08:29.508Z,99546.43
2022-12-26T02:09:03.323Z,99545.73
2022-12-26T02:09:37.611Z,99543.64
2022-12-26T02:10:20.475Z,99542.33
2022-12-26T02:11:04.077Z,99540.98
2022-12-26T02:11:50.349Z,99533.71
2022-12-26T02:12:45.026Z,99530.11
2022-12-26T02:13:20.232Z,99525.11
2022-12-26T02:13:54.191Z,99522.05
2022-12-26T02:14:28.193Z,99522.06
2022-12-26T02:15:03.163Z,99524.09
2022-12-26T02:15:36.752Z,99520.41
2022-12-26T02:16:15.222Z,99517.83
2022-12-26T02:16:48.644Z,99518.83
2022-12-26T02:17:22.243Z,99516.03
2022-12-26T02:17:55.657Z,99520.88
2022-12-26T02:18:28.919Z,99517.02
2022-12-26T02:19:02.898Z,99515.18
2022-12-26T02:20:07.023Z,99513.30
2022-12-26T02:21:12.242Z,99516.66
2022-12-26T02:21:55.490Z,99514.67
2022-12-26T02:22:54.847Z,99517.98
2022-12-26T02:23:37.157Z,99518.89
2022-12-26T02:24:51.877Z,99515.93
2022-12-26T02:25:25.143Z,99517.81
2022-12-26T02:26:26.477Z,99517.67
2022-12-26T02:27:45.283Z,99518.21
2022-12-26T02:28:40.284Z,99511.25
2022-12-26T02:29:51.666Z,99505.64
2022-12-26T02:30:28.818Z,99501.98
2022-12-26T02:31:10.198Z,99497.71
2022-12-26T02:31:53.315Z,99494.95
2022-12-26T02:32:51.743Z,99494.32
2022-12-26T02:33:55.166Z,99492.64
2022-12-26T02:34:35.708Z,99491.30
2022-12-26T02:35:46.662Z,99488.42
2022-12-26T02:37:01.824Z,99490.65
2022-12-26T02:37:53.530Z,99487.68
2022-12-26T02:38:47.227Z,99485.64
2022-12-26T02:39:50.609Z,99481.63
2022-12-26T02:40:53.489Z,99480.64
2022-12-26T02:42:13.218Z,99475.48
2022-12-26T02:43:03.786Z,99470.59
2022-12-26T02:44:01.072Z,99473.57
2022-12-26T02:45:07.810Z,99473.73
2022-12-26T02:46:27.805Z,99483.59
2022-12-26T02:47:14.371Z,99489.25
2022-12-26T02:48:09.222Z,99487.88
2022-12-26T02:49:13.816Z,99488.56
2022-12-26T02:50:24.053Z,99482.86
2022-12-26T02:51:23.897Z,99484.05
2022-12-26T02:52:18.815Z,99477.21
2022-12-26T02:53:28.986Z,99479.40
2022-12-26T02:54:28.404Z,99486.91
2022-12-26T02:55:36.355Z,99492.33
2022-12-26T02:56:54.428Z,99493.94
2022-12-26T02:58:00.573Z,99488.83
2022-12-26T02:59:10.508Z,99488.66
2022-12-26T03:00:36.784Z,99481.95
2022-12-26T03:01:44.269Z,99478.34
2022-12-26T03:02:43.598Z,99476.74
2022-12-26T03:03:40.513Z,99469.55
2022-12-26T03:04:36.376Z,99471.16
2022-12-26T03:05:44.432Z,99466.84
2022-12-26T03:06:46.977Z,99462.37
2022-12-26T03:07:44.842Z,99465.93
2022-12-26T03:09:02.970Z,99466.86
2022-12-26T03:09:58.711Z,99469.67
2022-12-26T03:10:56.655Z,99473.13
2022-12-26T03:11:55.873Z,99476.50
2022-12-26T03:12:56.878Z,99475.20
2022-12-26T03:13:37.247Z,99477.35
2022-12-26T03:14:18.349Z,99478.98
2022-12-26T03:15:02.891Z,99477.80
2022-12-26T03:16:22.793Z,99476.41
2022-12-26T03:17:22.604Z,99464.56
2022-12-26T03:18:04.464Z,99452.93
2022-12-26T03:18:59.235Z,99446.95
2022-12-26T03:19:37.586Z,99438.38
2022-12-26T03:20:34.956Z,99433.41
2022-12-26T03:21:10.511Z,99435.65
2022-12-26T03:21:46.122Z,99435.42
2022-12-26T03:22:31.993Z,99435.25
2022-12-26T03:23:14.434Z,99432.77
2022-12-26T03:23:50.499Z,99434.59
2022-12-26T03:24:25.588Z,99433.94
2022-12-26T03:25:21.300Z,99437.46
2022-12-26T03:26:25.418Z,99445.08
2022-12-26T03:26:58.953Z,99446.77
2022-12-26T03:27:34.415Z,99448.89
2022-12-26T03:28:08.563Z,99452.27
2022-12-26T03:28:44.012Z,99458.06
2022-12-26T03:29:40.021Z,99461.89
2022-12-26T03:30:45.465Z,99465.42
2022-12-26T03:31:19.333Z,99465.48
2022-12-26T03:31:52.720Z,99465.45
2022-12-26T03:32:26.131Z,99466.27
2022-12-26T03:33:00.099Z,99468.56
2022-12-26T03:33:56.110Z,99465.08
2022-12-26T03:34:29.957Z,99461.09
2022-12-26T03:35:13.249Z,99456.41
2022-12-26T03:35:46.690Z,99462.45
2022-12-26T03:36:39.820Z,99461.20
2022-12-26T03:37:19.046Z,99464.99
2022-12-26T03:38:02.315Z,99464.08
2022-12-26T03:38:56.193Z,99462.07
2022-12-26T03:40:16.080Z,99461.92
2022-12-26T03:41:41.984Z,99463.23
2022-12-26T03:42:53.279Z,99460.12
2022-12-26T03:44:19.948Z,99462.34
2022-12-26T03:45:22.307Z,99457.46
2022-12-26T03:46:23.348Z,99447.21
2022-12-26T03:47:24.526Z,99445.95
2022-12-26T03:48:38.992Z,99439.91
2022-12-26T03:49:55.774Z,99447.90
2022-12-26T03:50:54.662Z,99450.73
2022-12-26T03:51:54.513Z,99450.31
2022-12-26T03:52:52.789Z,99452.40
2022-12-26T03:53:53.256Z,99450.57
2022-12-26T03:55:23.564Z,99452.10
2022-12-26T03:56:32.920Z,99445.83
2022-12-26T03:57:30.013Z,99439.58
2022-12-26T03:58:36.589Z,99441.24
2022-12-26T03:59:33.875Z,99440.71
2022-12-26T04:00:29.992Z,99439.77
2022-12-26T04:01:29.292Z,99439.91
2022-12-26T04:02:26.076Z,99439.62
2022-12-26T04:03:25.194Z,99438.52
2022-12-26T04:04:20.293Z,99433.91
2022-12-26T04:05:15.630Z,99431.65
2022-12-26T04:06:11.725Z,99430.92
2022-12-26T04:07:12.820Z,99426.64
2022-12-26T04:08:18.206Z,99421.13
2022-12-26T04:09:18.390Z,99417.22
2022-12-26T04:10:36.460Z,99415.49
2022-12-26T04:11:35.490Z,99416.46
2022-12-26T04:12:35.404Z,99410.77
2022-12-26T04:13:38.096Z,99410.02
2022-12-26T04:14:52.151Z,99403.77
2022-12-26T04:16:02.571Z,99402.90
2022-12-26T04:17:27.219Z,99401.40
2022-12-26T04:18:32.231Z,99397.59
2022-12-26T04:19:50.951Z,99395.20
2022-12-26T04:20:43.969Z,99393.90
2022-12-26T04:21:44.903Z,99393.12
2022-12-26T04:22:53.994Z,99390.83
2022-12-26T04:24:01.686Z,99389.01
2022-12-26T04:25:00.933Z,99385.02
2022-12-26T04:25:58.843Z,99380.45
2022-12-26T04:27:02.793Z,99379.08
2022-12-26T04:27:54.810Z,99371.32
2022-12-26T04:28:46.907Z,99366.20
2022-12-26T04:29:39.218Z,99363.27
2022-12-26T04:30:31.036Z,99363.81
2022-12-26T04:31:55.864Z,99364.89
2022-12-26T04:33:07.362Z,99364.48
2022-12-26T04:34:11.811Z,99368.46
2022-12-26T04:35:39.714Z,99369.52
2022-12-26T04:36:43.384Z,99376.38
2022-12-26T04:37:43.318Z,99382.39
2022-12-26T04:38:41.034Z,99380.10
2022-12-26T04:39:37.157Z,99379.18
2022-12-26T04:40:37.001Z,99375.66
2022-12-26T04:41:31.407Z,99372.09
2022-12-26T04:42:25.228Z,99373.39
2022-12-26T04:43:49.519Z,99370.08
2022-12-26T04:44:13.687Z,99366.04
2022-12-26T04:44:50.181Z,99367.15
2022-12-26T04:45:24.235Z,99366.33
2022-12-26T04:45:58.046Z,99367.77
2022-12-26T04:46:33.200Z,99365.71
2022-12-26T04:47:07.424Z,99366.83
2022-12-26T04:48:01.208Z,99366.73
2022-12-26T04:49:00.965Z,99366.10
2022-12-26T04:50:04.899Z,99365.89
2022-12-26T04:50:50.808Z,99365.23
2022-12-26T04:51:24.599Z,99362.92
2022-12-26T04:52:00.268Z,99359.13
2022-12-26T04:52:52.157Z,99358.86
2022-12-26T04:53:25.512Z,99361.79
2022-12-26T04:53:58.762Z,99358.98
2022-12-26T04:54:32.640Z,99363.30
2022-12-26T04:55:06.208Z,99365.42
2022-12-26T04:55:39.586Z,99361.42
2022-12-26T04:56:13.415Z,99365.40
2022-12-26T04:56:46.888Z,99367.73
2022-12-26T04:57:20.528Z,99372.63
2022-12-26T04:57:54.307Z,99377.03
2022-12-26T04:58:27.785Z,99376.88
2022-12-26T04:59:01.241Z,99379.33
2022-12-26T04:59:34.855Z,99381.45
2022-12-26T05:00:09.112Z,99384.64
2022-12-26T05:00:42.513Z,99387.71
2022-12-26T05:01:34.746Z,99387.80
2022-12-26T05:02:27.878Z,99385.77
2022-12-26T05:03:20.135Z,99386.16
2022-12-26T05:04:12.568Z,99385.43
2022-12-26T05:05:04.365Z,99385.67
2022-12-26T05:06:06.431Z,99387.56
2022-12-26T05:06:58.327Z,99389.20
2022-12-26T05:07:53.784Z,99391.98
2022-12-26T05:08:56.822Z,99393.83
2022-12-26T05:09:36.567Z,99390.10
2022-12-26T05:10:17.179Z,99387.54
2022-12-26T05:10:50.524Z,99383.66
2022-12-26T05:11:24.719Z,99380.23
2022-12-26T05:11:58.292Z,99382.52
2022-12-26T05:12:31.586Z,99381.24
2022-12-26T05:13:05.034Z,99377.67
2022-12-26T05:13:38.907Z,99375.28
2022-12-26T05:14:12.261Z,99376.30
2022-12-26T05:14:45.832Z,99378.86
2022-12-26T05:15:19.457Z,99378.17
2022-12-26T05:16:11.730Z,99372.82
2022-12-26T05:17:03.860Z,99372.66
2022-12-26T05:17:55.923Z,99372.27
2022-12-26T05:18:47.827Z,99370.27
2022-12-26T05:19:39.868Z,99369.89
2022-12-26T05:20:32.457Z,99364.81
2022-12-26T05:21:29.128Z,99367.14
2022-12-26T05:22:23.617Z,99368.83
2022-12-26T05:23:18.816Z,99361.63
2022-12-26T05:24:10.918Z,99357.91
2022-12-26T05:25:21.600Z,99360.52
2022-12-26T05:26:14.213Z,99363.54
2022-12-26T05:27:06.467Z,99356.42
2022-12-26T05:28:02.466Z,99357.23
2022-12-26T05:28:42.108Z,99352.88
2022-12-26T05:29:15.433Z,99352.88
2022-12-26T05:29:48.852Z,99347.77
2022-12-26T05:30:23.081Z,99347.53
2022-12-26T05:30:57.017Z,99347.73
2022-12-26T05:31:35.560Z,99346.63
2022-12-26T05:32:10.285Z,99337.52
2022-12-26T05:33:02.434Z,99336.36
2022-12-26T05:33:54.373Z,99339.05
2022-12-26T05:34:27.668Z,99336.81
2022-12-26T05:35:00.987Z,99333.94
2022-12-26T05:35:35.705Z,99331.65
2022-12-26T05:36:10.588Z,99337.41
2022-12-26T05:36:56.881Z,99333.23
2022-12-26T05:37:30.300Z,99330.30
2022-12-26T05:38:03.741Z,99336.15
2022-12-26T05:38:37.565Z,99330.24
2022-12-26T05:39:11.015Z,99335.86
2022-12-26T05:39:44.348Z,99326.77
2022-12-26T05:40:17.760Z,99326.55
2022-12-26T05:40:51.201Z,99323.41
2022-12-26T05:41:24.924Z,99322.55
2022-12-26T05:41:58.371Z,99318.42
2022-12-26T05:42:31.709Z,99320.35
2022-12-26T05:43:05.033Z,99317.88
2022-12-26T05:43:38.448Z,99318.10
2022-12-26T05:44:12.457Z,99314.36
2022-12-26T05:44:45.787Z,99311.52
2022-12-26T05:45:20.693Z,99309.58
2022-12-26T05:45:54.012Z,99307.14
2022-12-26T05:46:27.497Z,99304.38
2022-12-26T05:47:00.859Z,99302.29
2022-12-26T05:47:34.193Z,99304.20
2022-12-26T05:48:07.395Z,99302.18
2022-12-26T05:48:40.857Z,99300.83
2022-12-26T05:49:14.456Z,99302.11
2022-12-26T05:49:47.928Z,99302.66
2022-12-26T05:50:21.233Z,99301.38
2022-12-26T05:51:02.757Z,99298.89
2022-12-26T05:51:36.421Z,99303.80
2022-12-26T05:52:09.919Z,99302.15
2022-12-26T05:52:43.344Z,99301.89
2022-12-26T05:53:16.635Z,99300.70
2022-12-26T05:53:51.050Z,99302.00
2022-12-26T05:54:24.427Z,99306.61
2022-12-26T05:54:57.692Z,99307.95
2022-12-26T05:55:30.958Z,99303.55
2022-12-26T05:56:14.950Z,99304.77
2022-12-26T05:56:49.583Z,99299.23
2022-12-26T05:57:23.124Z,99296.08
2022-12-26T05:57:56.990Z,99289.64
2022-12-26T05:58:30.462Z,99288.12
2022-12-26T05:59:03.800Z,99285.00
2022-12-26T05:59:37.435Z,99279.52
2022-12-26T06:00:11.892Z,99281.88
2022-12-26T06:00:45.488Z,99283.07
2022-12-26T06:01:21.064Z,99278.23
2022-12-26T06:01:54.748Z,99281.52
2022-12-26T06:02:30.825Z,99279.77
2022-12-26T06:03:04.505Z,99276.84
2022-12-26T06:03:39.260Z,99278.73
2022-12-26T06:04:12.721Z,99276.66
2022-12-26T06:04:46.520Z,99276.41
2022-12-26T06:05:20.187Z,99270.35
2022-12-26T06:05:56.692Z,99273.52
2022-12-26T06:06:30.328Z,99275.23
2022-12-26T06:07:04.211Z,99271.66
2022-12-26T06:07:37.798Z,99273.89
2022-12-26T06:08:11.474Z,99270.32
2022-12-26T06:08:48.674Z,99276.05
2022-12-26T06:09:25.274Z,99274.70
2022-12-26T06:09:59.315Z,99276.61
2022-12-26T06:10:33.024Z,99275.56
2022-12-26T06:11:13.503Z,99276.20
2022-12-26T06:11:49.103Z,99278.33
2022-12-26T06:12:22.897Z,99280.88
2022-12-26T06:12:57.323Z,99280.38
2022-12-26T06:13:30.700Z,99274.16
2022-12-26T06:14:05.280Z,99272.84
2022-12-26T06:14:38.911Z,99267.72
2022-12-26T06:15:13.165Z,99265.88
2022-12-26T06:15:46.654Z,99266.86
2022-12-26T06:16:20.610Z,99265.79
2022-12-26T06:16:54.058Z,99270.11
2022-12-26T06:17:27.526Z,99268.80
2022-12-26T06:18:01.100Z,99266.47
2022-12-26T06:18:35.131Z,99267.42
2022-12-26T06:19:08.837Z,99262.31
2022-12-26T06:19:46.727Z,99263.93
2022-12-26T06:20:20.583Z,99264.73
2022-12-26T06:20:54.082Z,99266.81
2022-12-26T06:21:27.652Z,99268.33
2022-12-26T06:22:01.109Z,99272.77
2022-12-26T06:22:34.452Z,99271.72
2022-12-26T06:23:07.854Z,99273.99
2022-12-26T06:23:41.789Z,99285.77
2022-12-26T06:24:15.150Z,99285.59
2022-12-26T06:24:48.753Z,99287.02
2022-12-26T06:25:22.067Z,99288.38
2022-12-26T06:25:56.884Z,99290.14
2022-12-26T06:26:30.381Z,99291.82
2022-12-26T06:27:04.015Z,99296.33
2022-12-26T06:27:37.375Z,99289.76
2022-12-26T06:28:10.754Z,99288.71
2022-12-26T06:28:44.601Z,99285.70
2022-12-26T06:29:18.466Z,99288.41
2022-12-26T06:29:52.414Z,99286.30
2022-12-26T06:30:26.316Z,99282.43
2022-12-26T06:31:08.614Z,99287.64
2022-12-26T06:31:42.387Z,99281.73
2022-12-26T06:32:15.864Z,99278.42
2022-12-26T06:32:49.182Z,99277.75
2022-12-26T06:33:22.795Z,99280.70
2022-12-26T06:34:02.293Z,99281.17
2022-12-26T06:34:35.579Z,99281.73
2022-12-26T06:35:09.090Z,99277.86
2022-12-26T06:35:42.598Z,99279.56
2022-12-26T06:36:20.141Z,99277.86
2022-12-26T06:36:55.697Z,99272.70
2022-12-26T06:37:29.185Z,99273.61
2022-12-26T06:38:02.730Z,99274.77
2022-12-26T06:38:36.545Z,99276.31
2022-12-26T06:39:09.992Z,99281.94
2022-12-26T06:39:43.400Z,99279.59
2022-12-26T06:40:16.846Z,99275.89
2022-12-26T06:40:50.133Z,99281.02
2022-12-26T06:41:25.220Z,99277.52
2022-12-26T06:41:58.754Z,99277.67
2022-12-26T06:42:32.161Z,99276.11
2022-12-26T06:43:05.735Z,99275.64
2022-12-26T06:43:39.313Z,99277.29
2022-12-26T06:44:17.897Z,99273.59
2022-12-26T06:44:52.439Z,99271.04
2022-12-26T06:45:25.966Z,99275.55
2022-12-26T06:46:01.282Z,99281.66
2022-12-26T06:46:34.767Z,99276.75
2022-12-26T06:47:08.182Z,99281.98
2022-12-26T06:47:41.598Z,99284.43
2022-12-26T06:48:15.378Z,99282.13
2022-12-26T06:48:49.138Z,99287.45
2022-12-26T06:49:32.470Z,99281.64
2022-12-26T06:50:07.490Z,99277.44
2022-12-26T06:50:41.004Z,99277.60
2022-12-26T06:51:17.522Z,99278.34
2022-12-26T06:51:50.938Z,99280.69
2022-12-26T06:52:24.414Z,99278.39
2022-12-26T06:52:57.875Z,99278.25
2022-12-26T06:53:31.385Z,99274.61
2022-12-26T06:54:05.253Z,99276.54
2022-12-26T06:54:38.803Z,99276.98
2022-12-26T06:55:12.251Z,99273.86
2022-12-26T06:55:45.603Z,99270.92
2022-12-26T06:56:25.017Z,99269.41
2022-12-26T06:56:58.474Z,99268.05
2022-12-26T06:57:32.014Z,99267.78
2022-12-26T06:58:05.368Z,99272.92
2022-12-26T06:58:38.963Z,99273.95
2022-12-26T06:59:12.549Z,99273.31
2022-12-26T06:59:46.174Z,99278.48
2022-12-26T07:00:20.020Z,99279.06
2022-12-26T07:00:53.370Z,99273.29
2022-12-26T07:01:29.797Z,99278.48
2022-12-26T07:02:03.434Z,99277.23
2022-12-26T07:02:37.322Z,99283.60
2022-12-26T07:03:12.043Z,99279.93
2022-12-26T07:03:51.155Z,99280.17
2022-12-26T07:04:25.353Z,99277.48
2022-12-26T07:04:58.737Z,99282.17
2022-12-26T07:05:32.156Z,99287.96
2022-12-26T07:06:17.167Z,99287.39
2022-12-26T07:06:50.986Z,99286.99
2022-12-26T07:07:24.474Z,99286.73
2022-12-26T07:07:57.931Z,99281.36
2022-12-26T07:08:31.517Z,99285.64
2022-12-26T07:09:17.327Z,99285.20
2022-12-26T07:09:50.990Z,99287.02
2022-12-26T07:10:24.398Z,99291.08
2022-12-26T07:10:58.219Z,99292.17
2022-12-26T07:11:34.736Z,99288.88
2022-12-26T07:12:08.334Z,99287.05
2022-12-26T07:12:41.851Z,99282.94
2022-12-26T07:13:15.300Z,99281.71
2022-12-26T07:13:48.927Z,99287.09
2022-12-26T07:14:22.234Z,99280.46
2022-12-26T07:15:01.348Z,99275.41
2022-12-26T07:15:35.552Z,99271.27
2022-12-26T07:16:09.180Z,99272.90
2022-12-26T07:16:44.671Z,99272.87
2022-12-26T07:17:18.182Z,99270.07
2022-12-26T07:17:53.125Z,99269.39
2022-12-26T07:18:26.791Z,99268.90
2022-12-26T07:19:00.197Z,99271.02
2022-12-26T07:19:33.585Z,99270.82
2022-12-26T07:20:08.763Z,99270.27
2022-12-26T07:20:42.216Z,99271.45
2022-12-26T07:21:17.055Z,99275.28
2022-12-26T07:21:51.205Z,99282.88
2022-12-26T07:22:24.640Z,99278.17
2022-12-26T07:22:58.157Z,99280.58
2022-12-26T07:23:32.224Z,99276.06
2022-12-26T07:24:06.404Z,99277.42
2022-12-26T07:24:39.861Z,99278.09
2022-12-26T07:25:13.251Z,99280.42
2022-12-26T07:25:49.139Z,99280.05
2022-12-26T07:26:24.130Z,99276.86
2022-12-26T07:26:57.819Z,99272.34
2022-12-26T07:27:31.353Z,99271.89
2022-12-26T07:28:05.341Z,99271.23
2022-12-26T07:28:39.034Z,99271.81
2022-12-26T07:29:13.496Z,99275.21
2022-12-26T07:29:47.837Z,99272.48
2022-12-26T07:30:21.560Z,99269.05
2022-12-26T07:30:55.879Z,99271.03
2022-12-26T07:31:29.529Z,99267.27
2022-12-26T07:32:03.100Z,99266.91
2022-12-26T07:32:36.673Z,99261.67
2022-12-26T07:33:10.243Z,99265.91
2022-12-26T07:33:43.933Z,99266.67
2022-12-26T07:34:17.250Z,99264.73
2022-12-26T07:34:50.761Z,99267.89
2022-12-26T07:35:24.199Z,99265.69
2022-12-26T07:36:05.890Z,99261.27
2022-12-26T07:36:40.312Z,99268.34
2022-12-26T07:37:13.917Z,99263.20
2022-12-26T07:37:47.425Z,99266.02
2022-12-26T07:38:20.966Z,99265.23
2022-12-26T07:38:54.621Z,99265.15
2022-12-26T07:39:27.992Z,99267.80
2022-12-26T07:40:01.473Z,99258.62
2022-12-26T07:40:34.918Z,99263.45
2022-12-26T07:41:47.103Z,99259.20
2022-12-26T07:42:21.956Z,99266.31
2022-12-26T07:42:55.304Z,99265.92
2022-12-26T07:43:28.864Z,99260.77
2022-12-26T07:44:02.356Z,99269.45
2022-12-26T07:44:35.743Z,99273.18
2022-12-26T07:45:09.737Z,99271.55
2022-12-26T07:45:45.792Z,99268.67
2022-12-26T07:46:20.259Z,99266.82
2022-12-26T07:46:53.859Z,99264.31
2022-12-26T07:47:27.166Z,99265.30
2022-12-26T07:48:00.717Z,99262.44
2022-12-26T07:48:34.242Z,99256.64
2022-12-26T07:49:08.470Z,99256.16
2022-12-26T07:49:42.163Z,99257.05
2022-12-26T07:50:15.705Z,99253.32
2022-12-26T07:50:51.190Z,99255.41
2022-12-26T07:51:29.090Z,99254.92
2022-12-26T07:52:02.756Z,99258.90
2022-12-26T07:52:36.709Z,99254.89
2022-12-26T07:53:10.388Z,99255.73
2022-12-26T07:53:43.966Z,99260.79
2022-12-26T07:54:18.254Z,99255.37
2022-12-26T07:54:51.744Z,99252.67
2022-12-26T07:55:25.413Z,99256.93
2022-12-26T07:56:02.498Z,99257.45
2022-12-26T07:56:36.415Z,99252.75
2022-12-26T07:57:46.224Z,99257.98
2022-12-26T07:58:03.386Z,99248.30
2022-12-26T07:58:36.909Z,99252.40
2022-12-26T07:59:15.842Z,99254.20
2022-12-26T07:59:53.233Z,99249.15
2022-12-26T08:00:27.334Z,99248.38